Data for 08/12/2005

Time Sea-Level Adjusted Pressure Absolute Pressure Temperature Relative Humidity Dew Point   
(mb) (inHg) (mb) (inHg) (C) (F) (%) (C) (F)
00:05 1021 30.15 850 25.1 15.3 59.6 66 9 48.2
00:10 1021 30.15 850 25.1 15.3 59.5 66 9 48.3
00:15 1021 30.15 850 25.1 15.2 59.3 66 9 48.3
00:20 1021 30.15 850 25.1 15.1 59.1 67 9 48.2
00:25 1021 30.15 850 25.1 15.1 59.2 67 9 48.3
00:30 1021 30.15 850 25.1 15.1 59.1 67 9 48.2
00:35 1021 30.15 850 25.1 15 59.1 67 9 48.3
00:40 1021 30.15 850 25.1 14.9 58.9 67 9 48.1
00:45 1021 30.15 850 25.1 14.9 58.8 67 8.9 48.1
00:50 1021 30.15 850 25.1 14.8 58.7 67 8.9 48
00:55 1021 30.15 850 25.1 14.8 58.7 67 8.9 48
01:00 1021 30.15 850 25.1 14.8 58.7 67 8.9 48
01:05 1021 30.15 850 25.1 14.7 58.5 68 8.9 47.9
01:10 1021 30.15 850 25.1 14.7 58.5 68 8.8 47.9
01:15 1021 30.15 850 25.1 14.7 58.5 68 8.8 47.9
01:20 1021 30.15 850 25.1 14.7 58.5 67 8.8 47.8
01:25 1021 30.15 850 25.1 14.7 58.4 67 8.8 47.8
01:30 1021 30.15 850 25.1 14.6 58.3 67 8.7 47.7
01:35 1021 30.15 850 25.1 14.6 58.3 67 8.6 47.5
01:40 1021 30.15 850 25.1 14.6 58.3 67 8.6 47.4
01:45 1021 30.15 850 25.1 14.6 58.2 67 8.5 47.3
01:50 1021 30.15 850 25.1 14.5 58.1 67 8.4 47.2
01:55 1021 30.15 850 25.1 14.5 58 66 8.3 46.9
02:00 1021 30.15 850 25.1 14.4 58 66 8.2 46.7
02:05 1021 30.15 850 25.1 14.4 57.9 65 8.1 46.5
02:10 1021 30.15 850 25.1 14.4 57.9 65 8.1 46.5
02:15 1021 30.15 850 25.1 14.3 57.8 66 8.1 46.5
02:20 1021 30.15 850 25.1 14.3 57.8 65 8 46.4
02:25 1021 30.15 850 25.1 14.3 57.7 66 8.1 46.5
02:30 1021 30.15 850 25.1 14.2 57.5 66 7.9 46.3
02:35 1021 30.15 850 25.1 14.1 57.4 66 7.9 46.3
02:40 1021 30.15 850 25.1 14 57.2 66 7.9 46.2
02:45 1021 30.15 850 25.1 14 57.3 66 7.9 46.2
02:50 1021 30.15 850 25.1 14.1 57.3 66 7.9 46.2
02:55 1021 30.15 850 25.1 14 57.2 66 7.8 46.1
03:00 1021 30.15 850 25.1 13.9 57.1 66 7.8 46
03:05 1021 30.15 850 25.1 13.9 57 66 7.8 46
03:10 1021 30.15 850 25.1 13.7 56.7 67 7.8 46
03:15 1021 30.15 850 25.1 13.7 56.7 67 7.7 45.9
03:20 1021 30.15 850 25.1 13.8 56.8 67 7.8 46.1
03:25 1021 30.15 850 25.1 13.9 57 67 7.9 46.2
03:30 1021 30.15 850 25.1 13.9 57 67 8 46.3
03:35 1021 30.15 850 25.1 13.8 56.9 67 8 46.3
03:40 1021 30.15 850 25.1 13.9 56.9 67 8 46.4
03:45 1021 30.15 850 25.1 13.8 56.9 68 8 46.4
03:50 1021 30.15 850 25.1 13.7 56.7 68 8 46.5
03:55 1021 30.15 850 25.1 13.6 56.5 68 7.9 46.3
04:00 1021 30.15 850 25.1 13.5 56.4 69 8 46.3
04:05 1021 30.15 850 25.1 13.4 56.2 69 8 46.4
04:10 1021 30.15 850 25.1 13.3 55.9 70 7.9 46.3
04:15 1021 30.15 850 25.1 13.2 55.8 70 7.8 46.1
04:20 1021 30.15 850 25.1 13.3 55.9 70 7.9 46.3
04:25 1021 30.15 850 25.1 13.3 56 69 7.9 46.2
04:30 1021 30.15 850 25.1 13.5 56.2 69 8 46.4
04:35 1021 30.15 850 25.1 13.4 56.2 69 8 46.3
04:40 1021 30.15 850 25.1 13.5 56.3 69 7.9 46.3
04:45 1021 30.15 850 25.1 13.5 56.3 69 8 46.5
04:50 1021 30.15 850 25.1 13.5 56.2 70 8.1 46.7
04:55 1021 30.15 850 25.1 13.2 55.7 72 8.2 46.7
05:00 1021 30.15 850 25.1 13.2 55.7 71 8.1 46.6
05:05 1021 30.15 850 25.1 13.3 55.9 71 8.1 46.6
05:10 1021 30.15 850 25.1 13.5 56.4 70 8.2 46.8
05:15 1021 30.15 850 25.1 13.6 56.5 70 8.3 46.9
05:20 1021 30.15 850 25.1 13.6 56.4 70 8.3 47
05:25 1021 30.15 850 25.1 13.6 56.4 71 8.4 47.2
05:30 1021 30.15 850 25.1 13.5 56.2 72 8.5 47.2
05:35 1021 30.15 850 25.1 13.4 56.2 72 8.4 47.2
05:40 1021 30.15 850 25.1 13.5 56.3 71 8.5 47.2
05:45 1021 30.15 850 25.1 13.5 56.3 72 8.6 47.4
05:50 1021 30.15 850 25.1 13.5 56.3 72 8.6 47.4
05:55 1021 30.15 850 25.1 13.6 56.4 72 8.7 47.6
06:00 1021 30.15 850 25.1 13.5 56.4 72 8.7 47.7
06:05 1021 30.15 850 25.1 13.5 56.4 73 8.8 47.8
06:10 1021 30.15 850 25.1 13.5 56.3 73 8.8 47.9
06:15 1021 30.15 850 25.1 13.6 56.4 73 8.9 48
06:20 1021 30.15 850 25.1 13.6 56.6 73 8.9 48.1
06:25 1021 30.15 850 25.1 13.7 56.6 74 9.1 48.3
06:30 1021 30.15 850 25.1 13.8 56.8 73 9 48.3
06:35 1021 30.15 850 25.1 13.8 56.8 74 9.2 48.5
06:40 1021 30.15 850 25.1 13.7 56.7 73 9 48.2
06:45 1021 30.15 850 25.1 13.7 56.6 74 9.1 48.5
06:50 1021 30.15 850 25.1 13.6 56.5 74 9.1 48.3
06:55 1021 30.15 850 25.1 13.7 56.6 74 9.1 48.4
07:00 1021 30.15 850 25.1 13.8 56.8 74 9.2 48.6
07:05 1021 30.15 850 25.1 13.9 56.9 73 9.2 48.6
07:10 1021 30.15 850 25.1 13.9 57 73 9.2 48.6
07:15 1021 30.15 850 25.1 14 57.2 73 9.2 48.6
07:20 1021 30.15 850 25.1 14.1 57.4 70 8.8 47.8
07:25 1021 30.15 850 25.1 14.3 57.7 70 8.8 47.9
07:30 1021 30.15 850 25.1 14.2 57.6 69 8.7 47.6
07:35 1021 30.15 850 25.1 14.3 57.7 68 8.5 47.2
07:40 1021 30.15 850 25.1 14.3 57.7 67 8.3 47
07:45 1021 30.15 850 25.1 14.3 57.7 68 8.5 47.3
07:50 1021 30.15 850 25.1 14.3 57.8 66 8.2 46.7
07:55 1021 30.15 850 25.1 14.4 57.9 66 8.2 46.8
08:00 1021 30.15 850 25.1 14.4 58 64 7.9 46.1
08:05 1021 30.15 850 25.1 14.5 58.1 63 7.7 45.8
08:10 1021 30.15 850 25.1 14.6 58.3 63 7.7 45.8
08:15 1021 30.15 850 25.1 14.6 58.3 62 7.5 45.5
08:20 1021 30.15 850 25.1 14.6 58.3 62 7.5 45.5
08:25 1021 30.15 850 25.1 14.8 58.7 61 7.5 45.5
08:30 1021 30.15 850 25.1 15.4 59.8 58 7.3 45.2
08:35 1021 30.15 850 25.1 15.4 59.8 58 7.4 45.3
08:40 1021 30.15 850 25.1 15.6 60.2 56 7.1 44.7
08:45 1021 30.15 850 25.1 15.6 60 57 7.3 45.1
08:50 1021 30.15 850 25.1 15.3 59.5 58 7.2 44.9
08:55 1021 30.15 850 25.1 15.2 59.4 57 6.9 44.5
09:00 1021 30.15 850 25.1 15.2 59.3 59 7.4 45.3
09:05 1021 30.15 850 25.1 15.1 59.2 58 6.9 44.5
09:10 1021 30.15 850 25.1 15.2 59.4 60 7.5 45.5
09:15 1021 30.15 850 25.1 15.4 59.7 59 7.5 45.6
09:20 1021 30.15 850 25.1 15.5 59.8 58 7.3 45.2
09:25 1021 30.15 850 25.1 15.3 59.6 59 7.4 45.3
09:30 1021 30.15 850 25.1 15.4 59.6 59 7.5 45.6
09:35 1021 30.15 850 25.1 15.3 59.6 60 7.6 45.7
09:40 1021 30.15 850 25.1 15.1 59.2 60 7.5 45.4
09:45 1021 30.15 850 25.1 15.4 59.7 58 7.2 44.9
09:50 1021 30.15 850 25.1 15.3 59.6 59 7.5 45.5
09:55 1021 30.15 850 25.1 15.2 59.4 59 7.3 45.1
10:00 1021 30.15 850 25.1 15.5 59.8 57 7.1 44.9
10:05 1021 30.15 850 25.1 15.5 59.8 57 7.1 44.8
10:10 1021 30.15 850 25.1 15.5 59.9 58 7.4 45.3
10:15 1021 30.15 850 25.1 15.6 60 57 7.2 44.9
10:20 1021 30.15 850 25.1 15.4 59.6 58 7.3 45.1
10:25 1021 30.15 850 25.1 15.3 59.5 59 7.4 45.3
10:30 1021 30.15 850 25.1 15.3 59.5 58 7.2 44.9
10:35 1021 30.15 850 25.1 15.5 59.8 57 7.1 44.9
10:40 1021 30.15 850 25.1 15.6 60 58 7.5 45.4
10:45 1021 30.15 850 25.1 15.5 59.8 57 7.1 44.8
10:50 1021 30.15 850 25.1 15.6 60.1 58 7.4 45.4
10:55 1021 30.15 850 25.1 15.6 60.2 57 7.3 45.1
11:00 1021 30.15 850 25.1 15.7 60.2 57 7.4 45.3
11:05 1021 30.15 850 25.1 15.7 60.3 57 7.3 45.1
11:10 1021 30.15 850 25.1 16.2 61.1 55 7.1 44.8
11:15 1021 30.15 850 25.1 16.1 60.9 56 7.3 45.1
11:20 1021 30.15 850 25.1 15.7 60.2 57 7.3 45.1
11:25 1021 30.15 850 25.1 15.5 59.9 57 7.1 44.8
11:30 1021 30.15 850 25.1 15.6 60 58 7.3 45.2
11:35 1021 30.15 850 25.1 15.6 60 58 7.5 45.4
11:40 1021 30.15 850 25.1 15.5 60 58 7.4 45.3
11:45 1021 30.15 850 25.1 15.3 59.6 58 7.3 45.1
11:50 1021 30.15 850 25.1 15.4 59.7 58 7.4 45.3
11:55 1021 30.15 850 25.1 15.5 59.9 58 7.4 45.4
12:00 1021 30.15 850 25.1 15.5 59.9 57 7.2 44.9
12:05 1021 30.15 850 25.1 15.4 59.6 59 7.4 45.2
12:10 1021 30.15 850 25.1 15.6 60 57 7.2 44.9
12:15 1021 30.15 850 25.1 15.6 60.1 57 7.2 45
12:20 1020 30.12 850 25.1 15.5 60 57 7.2 45
12:25 1020 30.12 850 25.1 15.4 59.8 57 7.1 44.8
12:30 1020 30.12 850 25.1 15.8 60.4 56 7 44.7
12:35 1020 30.12 850 25.1 16.2 61.1 55 7.1 44.8
12:40 1020 30.12 849 25.07 16.1 61.1 56 7.5 45.6
12:45 1020 30.12 849 25.07 16.4 61.5 55 7.5 45.4
12:50 1020 30.12 849 25.07 16.5 61.7 54 7.4 45.3
12:55 1020 30.12 849 25.07 16.5 61.8 56 7.8 46.1
13:00 1020 30.12 849 25.07 16.6 61.8 54 7.4 45.2
13:05 1020 30.12 849 25.07 16.6 61.8 55 7.6 45.6
13:10 1020 30.12 849 25.07 16.8 62.2 55 7.7 45.9
13:15 1020 30.12 849 25.07 16.7 62.1 54 7.5 45.5
13:20 1020 30.12 849 25.07 17.2 63 53 7.6 45.6
13:25 1020 30.12 849 25.07 17.4 63.2 53 7.7 45.9
13:30 1020 30.12 849 25.07 16.9 62.5 54 7.7 45.8
13:35 1020 30.12 849 25.07 16.7 62.1 55 7.7 45.9
13:40 1020 30.12 849 25.07 16.6 61.8 56 7.9 46.2
13:45 1020 30.12 849 25.07 16.6 61.8 56 7.9 46.2
13:50 1020 30.12 849 25.07 16.6 61.9 55 7.6 45.7
13:55 1020 30.12 849 25.07 16.9 62.5 55 7.8 46.1
14:00 1020 30.12 849 25.07 16.9 62.4 53 7.5 45.5
14:05 1020 30.12 849 25.07 16.8 62.3 55 7.9 46.2
14:10 1020 30.12 849 25.07 17 62.6 53 7.3 45.2
14:15 1020 30.12 849 25.07 16.7 62.1 54 7.6 45.7
14:20 1020 30.12 849 25.07 16.6 62 55 7.5 45.6
14:25 1020 30.12 849 25.07 16.7 62 53 7.3 45.1
14:30 1020 30.12 849 25.07 16.7 62.1 54 7.4 45.3
14:35 1020 30.12 849 25.07 16.5 61.7 53 7.1 44.8
14:40 1020 30.12 849 25.07 16.5 61.7 56 7.7 45.8
14:45 1020 30.12 849 25.07 16.6 61.8 55 7.5 45.5
14:50 1020 30.12 849 25.07 16.2 61.2 55 7.4 45.3
14:55 1020 30.12 849 25.07 15.9 60.6 56 7.1 44.8
15:00 1020 30.12 849 25.07 15.9 60.6 55 7 44.7
15:05 1020 30.12 849 25.07 15.8 60.4 55 6.9 44.4
15:10 1020 30.12 849 25.07 15.6 60 55 6.7 44
15:15 1020 30.12 849 25.07 15.4 59.8 57 6.9 44.5
15:20 1020 30.12 849 25.07 15.2 59.4 57 6.8 44.3
15:25 1020 30.12 849 25.07 15.1 59.1 58 6.9 44.4
15:30 1020 30.12 849 25.07 15.1 59.2 58 6.9 44.4
15:35 1020 30.12 850 25.1 15 59.1 57 6.7 44.1
15:40 1020 30.12 850 25.1 14.8 58.7 59 6.9 44.4
15:45 1020 30.12 849 25.07 14.6 58.3 58 6.6 43.9
15:50 1020 30.12 849 25.07 14.5 58.1 60 6.9 44.5
15:55 1020 30.12 849 25.07 14.4 57.8 61 7 44.6
16:00 1020 30.12 849 25.07 14.2 57.5 62 7.1 44.8
16:05 1020 30.12 849 25.07 14.4 57.8 60 6.8 44.2
16:10 1020 30.12 849 25.07 14.9 58.7 56 6.3 43.3
16:15 1020 30.12 849 25.07 15.3 59.6 55 6.4 43.6
16:20 1020 30.12 849 25.07 14.9 58.8 58 6.6 44
16:25 1020 30.12 849 25.07 15.3 59.5 55 6.4 43.5
16:30 1020 30.12 849 25.07 15.3 59.6 55 6.5 43.7
16:35 1020 30.12 849 25.07 14.9 58.8 58 6.7 44
16:40 1020 30.12 849 25.07 14.9 58.8 57 6.6 43.8
16:45 1020 30.12 849 25.07 14.4 58 59 6.7 44
16:50 1020 30.12 850 25.1 13.9 57.1 61 6.5 43.7
16:55 1021 30.15 850 25.1 13.8 56.9 61 6.5 43.6
17:00 1021 30.15 850 25.1 13.4 56.1 62 6.4 43.5
17:05 1021 30.15 850 25.1 13.1 55.5 63 6.2 43.1
17:10 1021 30.15 850 25.1 12.9 55.2 64 6.4 43.5
17:15 1021 30.15 850 25.1 12.6 54.7 66 6.5 43.6
17:20 1021 30.15 850 25.1 12.4 54.4 66 6.4 43.5
17:25 1021 30.15 850 25.1 12.2 54 67 6.4 43.4
17:30 1021 30.15 850 25.1 12.2 53.9 67 6.3 43.3
17:35 1021 30.15 850 25.1 11.8 53.3 69 6.3 43.3
17:40 1021 30.15 850 25.1 11.6 52.8 70 6.3 43.3
17:45 1021 30.15 850 25.1 11.3 52.3 71 6.3 43.3
17:50 1021 30.15 851 25.13 10.8 51.5 72 6 42.9
17:55 1022 30.18 851 25.13 10.7 51.3 72 6 42.7
18:00 1022 30.18 851 25.13 10.5 50.8 73 5.8 42.4
18:05 1023 30.21 852 25.16 10.3 50.5 75 6.1 42.9
18:10 1022 30.18 851 25.13 10.1 50.1 80 6.8 44.3
18:15 1022 30.18 852 25.16 9.3 48.7 84 6.7 44
18:20 1023 30.21 852 25.16 8.9 48.1 86 6.8 44.2
18:25 1023 30.21 852 25.16 8.6 47.5 89 6.9 44.5
18:30 1023 30.21 852 25.16 8.4 47.2 90 6.9 44.4
18:35 1023 30.21 852 25.16 8.2 46.8 91 6.8 44.3
18:40 1022 30.18 852 25.16 8.1 46.5 92 6.9 44.4
18:45 1022 30.18 851 25.13 7.9 46.2 92 6.7 44.1
18:50 1022 30.18 851 25.13 7.8 46 92 6.7 44
18:55 1022 30.18 851 25.13 7.8 46 93 6.8 44.2
19:00 1022 30.18 851 25.13 7.7 45.9 92 6.5 43.7
19:05 1022 30.18 851 25.13 7.6 45.8 91 6.2 43.2
19:10 1022 30.18 851 25.13 7.6 45.7 89 5.9 42.6
19:15 1022 30.18 851 25.13 7.6 45.7 89 6 42.7
19:20 1022 30.18 852 25.16 7.7 45.9 89 5.9 42.7
19:25 1023 30.21 852 25.16 7.7 45.8 88 5.8 42.5
19:30 1023 30.21 852 25.16 7.8 46 84 5.2 41.4
19:35 1023 30.21 852 25.16 7.8 46.1 83 5.2 41.3
19:40 1023 30.21 852 25.16 7.8 46 83 5.1 41.2
19:45 1023 30.21 852 25.16 7.8 46 82 4.9 40.8
19:50 1023 30.21 853 25.19 7.7 45.9 83 5 41.1
19:55 1023 30.21 853 25.19 7.6 45.8 83 5 41
20:00 1023 30.21 853 25.19 7.7 45.9 82 4.8 40.6
20:05 1024 30.24 853 25.19 7.7 45.8 83 4.9 40.9
20:10 1024 30.24 853 25.19 7.6 45.7 84 5.1 41.1
20:15 1024 30.24 853 25.19 7.5 45.6 83 4.9 40.8
20:20 1024 30.24 853 25.19 7.4 45.4 85 5.1 41.2
20:25 1024 30.24 853 25.19 7.4 45.3 85 5.1 41.2
20:30 1024 30.24 853 25.19 7.3 45.2 85 5.1 41.1
20:35 1024 30.24 853 25.19 7.3 45.1 86 5.1 41.2
20:40 1024 30.24 853 25.19 7.2 44.9 86 4.9 40.9
20:45 1024 30.24 853 25.19 7.2 45 86 5 41
20:50 1024 30.24 853 25.19 7.3 45.1 86 5 41
20:55 1024 30.24 853 25.19 7.3 45.1 85 5 41
21:00 1024 30.24 853 25.19 7.2 44.9 85 4.9 40.7
21:05 1024 30.24 853 25.19 7.2 44.9 85 4.9 40.8
21:10 1024 30.24 853 25.19 7.1 44.8 85 4.8 40.6
21:15 1024 30.24 853 25.19 7.2 44.9 84 4.7 40.5
21:20 1024 30.24 853 25.19 7.2 44.9 84 4.7 40.4
21:25 1024 30.24 853 25.19 7.1 44.7 84 4.5 40.1
21:30 1024 30.24 853 25.19 7.1 44.8 84 4.5 40.1
21:35 1024 30.24 853 25.19 7.1 44.7 85 4.6 40.4
21:40 1024 30.24 853 25.19 7 44.6 84 4.5 40.1
21:45 1024 30.24 853 25.19 7 44.6 85 4.6 40.2
21:50 1024 30.24 853 25.19 6.9 44.4 85 4.6 40.3
21:55 1024 30.24 853 25.19 6.8 44.3 86 4.6 40.3
22:00 1024 30.24 853 25.19 6.8 44.2 86 4.7 40.4
22:05 1024 30.24 853 25.19 6.7 44.1 86 4.6 40.3
22:10 1024 30.24 853 25.19 6.7 44.1 86 4.6 40.3
22:15 1024 30.24 853 25.19 6.7 44 86 4.5 40.2
22:20 1024 30.24 853 25.19 6.7 44 86 4.5 40.1
22:25 1024 30.24 853 25.19 6.6 43.8 86 4.5 40.1
22:30 1024 30.24 853 25.19 6.6 43.9 85 4.3 39.8
22:35 1024 30.24 853 25.19 6.7 44 85 4.4 39.9
22:40 1024 30.24 853 25.19 6.7 44 85 4.3 39.7
22:45 1024 30.24 854 25.22 6.7 44.1 85 4.3 39.8
22:50 1024 30.24 853 25.19 6.7 44.1 84 4.3 39.8
22:55 1024 30.24 854 25.22 6.8 44.2 85 4.3 39.8
23:00 1024 30.24 854 25.22 6.8 44.3 84 4.3 39.7
23:05 1024 30.24 854 25.22 6.8 44.2 85 4.4 39.9
23:10 1024 30.24 854 25.22 6.8 44.2 85 4.5 40.1
23:15 1025 30.27 854 25.22 6.7 44.1 85 4.4 40
23:20 1025 30.27 854 25.22 6.8 44.3 85 4.4 40
23:25 1025 30.27 854 25.22 6.8 44.2 85 4.4 39.9
23:30 1024 30.24 854 25.22 6.8 44.3 85 4.4 39.9
23:35 1024 30.24 854 25.22 6.8 44.2 85 4.5 40.1
23:40 1024 30.24 854 25.22 6.8 44.2 86 4.5 40.2
23:45 1024 30.24 854 25.22 6.7 44.1 86 4.5 40
23:50 1024 30.24 854 25.22 6.7 44.1 85 4.4 40
23:55 1024 30.24 854 25.22 6.8 44.2 85 4.5 40
24:00 1024 30.24 853 25.19 6.8 44.2 85 4.4 40